Time;durP1;ratioP1;P1;durP2;ratioP2;P2;SDS_P1;SDS_P2;PMS_P1;PMS_P2;Temp;Humidity;BMP_temperature;BMP_pressure;BME280_temperature;BME280_humidity;BME280_pressure;Samples;Min_cycle;Max_cycle;Signal;HPM_P1;HPM_P2
2022/01/11 00:00:21;;;;;;;25.98;13.52;;;;;;;0.07;90.00;101071.72;5111732;28;20051;-73
2022/01/11 00:02:51;;;;;;;26.13;14.95;;;;;;;0.16;89.20;101081.31;5112259;28;20052;-73
2022/01/11 00:07:50;;;;;;;26.25;14.30;;;;;;;-0.17;91.60;101087.31;5112183;28;20047;-73
2022/01/11 00:10:34;;;;;;;29.88;15.43;;;;;;;-0.18;91.88;101081.13;5112170;28;20032;-73
2022/01/11 00:13:02;;;;;;;26.25;14.65;;;;;;;-0.22;92.48;101090.59;5112073;28;20051;-73
2022/01/11 00:15:31;;;;;;;25.75;14.82;;;;;;;-0.35;93.95;101102.06;5111607;28;20051;-73
2022/01/11 00:17:59;;;;;;;29.05;15.68;;;;;;;-0.51;95.12;101095.09;5111987;28;20505;-73
2022/01/11 00:20:28;;;;;;;28.95;14.48;;;;;;;-0.52;95.60;101092.59;5111340;28;20048;-72
2022/01/11 00:25:29;;;;;;;26.23;14.85;;;;;;;-0.69;97.02;101091.03;5111627;28;20062;-73
2022/01/11 00:27:59;;;;;;;29.65;15.13;;;;;;;-0.86;97.18;101103.88;5111581;28;20051;-73
2022/01/11 00:30:32;;;;;;;34.75;17.02;;;;;;;-0.93;98.95;101102.16;5093370;28;20044;-73
2022/01/11 00:33:05;;;;;;;28.67;15.88;;;;;;;-0.80;98.93;101106.84;5111719;28;20059;-73
2022/01/11 00:35:56;;;;;;;32.72;17.45;;;;;;;-0.84;98.38;101106.34;5111881;28;20048;-72
2022/01/11 00:38:28;;;;;;;31.45;15.20;;;;;;;-0.80;98.86;101109.53;5112454;28;20051;-73
2022/01/11 00:40:58;;;;;;;29.88;16.77;;;;;;;-0.71;98.50;101113.72;5111791;28;20059;-73
2022/01/11 00:43:28;;;;;;;29.50;17.30;;;;;;;-0.87;97.10;101107.56;5112659;28;20054;-73
2022/01/11 00:45:57;;;;;;;31.75;17.25;;;;;;;-1.05;97.37;101117.91;5111740;28;20052;-73
2022/01/11 00:48:27;;;;;;;31.92;18.35;;;;;;;-1.22;99.30;101123.53;5111615;28;20043;-73
2022/01/11 00:50:56;;;;;;;36.45;17.58;;;;;;;-1.41;100.00;101111.50;5111335;28;20058;-73
2022/01/11 00:53:24;;;;;;;35.15;17.02;;;;;;;-1.55;100.00;101121.22;5094016;28;20047;-73
2022/01/11 00:55:52;;;;;;;33.22;16.92;;;;;;;-1.66;100.00;101120.66;5111409;28;20502;-73
2022/01/11 00:58:22;;;;;;;32.47;17.20;;;;;;;-1.72;100.00;101123.28;5111490;28;20051;-73
2022/01/11 01:00:50;;;;;;;38.47;18.42;;;;;;;-1.61;100.00;101125.50;5111500;28;20074;-73
2022/01/11 01:03:19;;;;;;;35.25;18.25;;;;;;;-1.59;100.00;101133.34;5114829;28;20039;-72
2022/01/11 01:05:47;;;;;;;33.75;19.33;;;;;;;-1.68;100.00;101117.34;5115274;28;20486;-73
2022/01/11 01:08:16;;;;;;;42.13;20.10;;;;;;;-1.71;100.00;101122.25;5097391;28;20078;-72
2022/01/11 01:10:47;;;;;;;39.15;19.88;;;;;;;-1.73;100.00;101138.53;5097615;28;20039;-73
2022/01/11 01:13:26;;;;;;;34.90;20.17;;;;;;;-1.64;100.00;101142.81;5096738;28;20044;-73
2022/01/11 01:15:59;;;;;;;41.50;20.90;;;;;;;-1.65;100.00;101140.31;5097145;28;20051;-73
2022/01/11 01:18:50;;;;;;;45.05;22.05;;;;;;;-1.78;100.00;101138.25;5114738;28;20044;-73
2022/01/11 01:21:19;;;;;;;49.53;24.30;;;;;;;-1.85;100.00;101140.00;5096722;28;20751;-73
2022/01/11 01:23:47;;;;;;;43.58;23.85;;;;;;;-1.75;100.00;101143.25;5097484;28;20047;-73
2022/01/11 01:26:17;;;;;;;43.38;25.02;;;;;;;-1.67;100.00;101148.53;5114929;28;20490;-73
2022/01/11 01:28:47;;;;;;;55.53;27.15;;;;;;;-1.72;100.00;101150.94;5115046;28;20490;-73
2022/01/11 01:31:16;;;;;;;51.40;25.23;;;;;;;-1.65;100.00;101157.22;5114333;28;20055;-73
2022/01/11 01:33:45;;;;;;;47.97;26.70;;;;;;;-1.65;100.00;101156.41;5114561;28;20055;-73
2022/01/11 01:36:13;;;;;;;51.00;27.42;;;;;;;-1.77;100.00;101147.97;5096899;28;20048;-73
2022/01/11 01:38:41;;;;;;;43.20;24.20;;;;;;;-1.82;100.00;101150.34;5097134;28;20059;-72
2022/01/11 01:41:15;;;;;;;49.85;24.63;;;;;;;-1.91;100.00;101147.78;5114702;28;20055;-73
2022/01/11 01:43:44;;;;;;;;;;;;;;;-1.81;100.00;101152.06;5115936;28;20051;-73
2022/01/11 01:46:14;;;;;;;39.95;20.85;;;;;;;-1.58;100.00;101159.16;5114818;28;19924;-73
2022/01/11 01:48:43;;;;;;;43.67;22.23;;;;;;;-1.57;100.00;101166.22;5096720;28;20489;-73
2022/01/11 01:51:11;;;;;;;45.58;23.73;;;;;;;-1.46;100.00;101170.28;5096505;28;20046;-73
2022/01/11 01:53:43;;;;;;;40.70;22.75;;;;;;;-1.62;100.00;101164.91;5115195;28;20043;-73
2022/01/11 01:56:12;;;;;;;43.55;22.83;;;;;;;-1.67;100.00;101159.28;5096962;28;20047;-73
2022/01/11 01:58:42;;;;;;;37.63;20.58;;;;;;;-1.78;100.00;101162.41;5079903;28;20467;-73
2022/01/11 02:01:13;;;;;;;42.42;21.95;;;;;;;-1.74;100.00;101157.50;5096224;28;20052;-73
2022/01/11 02:03:43;;;;;;;40.83;20.63;;;;;;;-1.67;100.00;101170.00;5114495;28;20062;-72
2022/01/11 02:06:14;;;;;;;42.78;22.98;;;;;;;-1.57;100.00;101174.28;5095825;28;20077;-73
2022/01/11 02:08:45;;;;;;;40.08;21.50;;;;;;;-1.59;100.00;101171.78;5114348;28;20509;-73
2022/01/11 02:11:17;;;;;;;41.13;20.95;;;;;;;-1.76;100.00;101171.13;5114283;28;20043;-73
2022/01/11 02:13:46;;;;;;;42.85;21.27;;;;;;;-1.86;100.00;101173.22;5094565;28;20055;-72
2022/01/11 02:16:21;;;;;;;37.22;19.63;;;;;;;-1.92;100.00;101172.09;5113736;28;20051;-72
2022/01/11 02:18:52;;;;;;;40.63;21.42;;;;;;;-1.99;100.00;101173.84;5095980;28;20451;-73
2022/01/11 02:21:22;;;;;;;37.08;19.20;;;;;;;-2.01;100.00;101184.75;5129599;27;20047;-73
2022/01/11 02:23:51;;;;;;;45.85;21.85;;;;;;;-1.96;100.00;101179.66;5095890;28;20047;-73
2022/01/11 02:26:23;;;;;;;34.42;19.55;;;;;;;-1.92;100.00;101177.47;5096060;28;20054;-73
2022/01/11 02:28:52;;;;;;;40.60;20.42;;;;;;;-1.94;100.00;101185.72;5095530;28;20043;-72
2022/01/11 02:31:20;;;;;;;40.90;18.95;;;;;;;-2.00;100.00;101183.75;5095905;28;20482;-73
2022/01/11 02:33:57;;;;;;;38.35;19.00;;;;;;;-1.86;100.00;101186.66;5095078;28;20052;-72
2022/01/11 02:36:30;;;;;;;35.30;19.05;;;;;;;-1.92;100.00;101180.13;5113450;28;20051;-73
2022/01/11 02:39:09;;;;;;;39.97;19.60;;;;;;;-2.04;100.00;101190.50;5095992;28;20052;-73
2022/01/11 02:41:49;;;;;;;41.10;19.90;;;;;;;-1.77;100.00;101185.53;5095555;28;20528;-72
2022/01/11 02:44:21;;;;;;;39.75;21.30;;;;;;;-1.66;100.00;101206.56;5079186;28;20054;-72
2022/01/11 02:46:50;;;;;;;37.50;19.48;;;;;;;-1.83;100.00;101203.22;5095335;28;20044;-73
2022/01/11 02:49:20;;;;;;;42.67;21.00;;;;;;;-1.98;100.00;101203.19;5094771;28;20047;-72
2022/01/11 02:51:53;;;;;;;34.95;19.90;;;;;;;-2.09;100.00;101208.97;5095126;28;20056;-73
2022/01/11 02:54:23;;;;;;;35.67;19.52;;;;;;;-2.15;100.00;101207.84;5095584;28;20043;-73
2022/01/11 02:56:59;;;;;;;37.05;20.08;;;;;;;-2.16;100.00;101211.53;5111149;28;20458;-72
2022/01/11 02:59:27;;;;;;;36.67;18.88;;;;;;;-2.20;100.00;101208.38;5094926;28;20040;-72
2022/01/11 03:01:55;;;;;;;37.33;19.75;;;;;;;-2.23;100.00;101214.09;5094976;28;20059;-72
2022/01/11 03:04:28;;;;;;;40.25;18.98;;;;;;;-2.27;100.00;101206.56;5113353;28;20509;-72
2022/01/11 03:06:57;;;;;;;36.92;18.70;;;;;;;-2.22;100.00;101206.88;5095567;28;20047;-72
2022/01/11 03:09:37;;;;;;;35.50;19.67;;;;;;;-2.22;100.00;101214.91;5095179;28;20047;-72
2022/01/11 03:12:07;;;;;;;37.42;19.80;;;;;;;-1.80;100.00;101215.44;5095064;28;20050;-72
2022/01/11 03:14:35;;;;;;;36.40;19.45;;;;;;;-1.82;100.00;101220.13;5094771;28;20051;-72
2022/01/11 03:17:05;;;;;;;37.30;17.65;;;;;;;-1.91;100.00;101206.78;5094303;28;20039;-72
2022/01/11 03:19:34;;;;;;;34.83;18.05;;;;;;;-1.85;100.00;101220.50;5095008;28;20047;-72
2022/01/11 03:22:02;;;;;;;41.47;17.67;;;;;;;-1.70;100.00;101229.44;5094614;28;20055;-73
2022/01/11 03:24:30;;;;;;;36.53;18.40;;;;;;;-1.79;100.00;101219.78;5112357;28;20063;-72
2022/01/11 03:27:00;;;;;;;30.45;17.30;;;;;;;-1.91;100.00;101212.16;5095090;28;20044;-72
2022/01/11 03:29:29;;;;;;;31.50;17.48;;;;;;;-1.91;100.00;101222.06;5094500;28;20052;-72
2022/01/11 03:31:57;;;;;;;33.35;17.98;;;;;;;-1.87;100.00;101227.91;5113430;28;20052;-73
2022/01/11 03:34:27;;;;;;;30.55;15.60;;;;;;;-2.02;100.00;101220.63;5095023;28;20050;-72
2022/01/11 03:36:55;;;;;;;29.95;17.75;;;;;;;-2.08;100.00;101226.72;5112776;28;20063;-73
2022/01/11 03:39:26;;;;;;;33.08;17.40;;;;;;;-2.07;100.00;101229.22;5094379;28;20051;-72
2022/01/11 03:41:58;;;;;;;32.40;16.92;;;;;;;-1.84;100.00;101235.56;5094591;28;20047;-72
2022/01/11 03:44:27;;;;;;;31.40;15.82;;;;;;;-2.00;100.00;101228.50;5094101;28;20047;-73
2022/01/11 03:46:55;;;;;;;30.83;16.20;;;;;;;-1.98;100.00;101215.75;5083392;28;20422;-72
2022/01/11 03:49:23;;;;;;;30.88;16.70;;;;;;;-1.94;100.00;101238.53;5074741;28;20513;-72
2022/01/11 03:51:51;;;;;;;28.88;14.48;;;;;;;-1.95;100.00;101243.03;5077700;28;20040;-73
2022/01/11 03:54:27;;;;;;;31.55;15.48;;;;;;;-1.86;100.00;101235.75;5093741;28;20058;-72
2022/01/11 03:57:30;;;;;;;25.70;13.63;;;;;;;-1.67;100.00;101236.28;5107474;28;20058;-73
2022/01/11 04:00:00;;;;;;;26.70;14.35;;;;;;;-1.57;100.00;101244.06;5093887;28;20048;-72
2022/01/11 04:02:29;;;;;;;27.20;15.40;;;;;;;-1.49;99.33;101246.66;5112831;28;20042;-72
2022/01/11 04:04:57;;;;;;;26.50;13.90;;;;;;;-1.79;100.00;101247.47;5093611;28;20055;-72
2022/01/11 04:07:28;;;;;;;28.88;13.77;;;;;;;-2.02;99.83;101250.13;5093538;28;20082;-73
2022/01/11 04:09:57;;;;;;;31.05;14.93;;;;;;;-2.09;100.00;101250.03;5093703;28;20494;-73
2022/01/11 04:12:25;;;;;;;21.98;13.45;;;;;;;-2.03;100.00;101243.13;5094132;28;20051;-73
2022/01/11 04:14:53;;;;;;;29.48;13.85;;;;;;;-1.94;100.00;101249.25;5093750;28;20461;-73
2022/01/11 04:17:23;;;;;;;26.23;14.38;;;;;;;-1.96;100.00;101262.84;5111770;28;20071;-72
2022/01/11 04:19:52;;;;;;;29.55;13.90;;;;;;;-2.09;100.00;101258.09;5112055;28;20044;-72
2022/01/11 04:22:20;;;;;;;24.77;13.80;;;;;;;-2.21;100.00;101262.16;5093818;28;20040;-72
2022/01/11 04:24:48;;;;;;;26.88;12.82;;;;;;;-1.98;100.00;101262.19;5111165;28;20047;-72
2022/01/11 04:27:16;;;;;;;30.60;14.35;;;;;;;-1.77;98.29;101263.34;5111634;28;20044;-72
2022/01/11 04:29:44;;;;;;;25.05;13.27;;;;;;;-1.84;97.60;101267.78;5093141;28;20039;-72
2022/01/11 04:32:12;;;;;;;22.00;11.70;;;;;;;-2.00;98.67;101276.78;5093756;28;20051;-72
2022/01/11 04:34:40;;;;;;;21.98;12.63;;;;;;;-2.11;99.15;101275.38;5111815;28;20453;-72
2022/01/11 04:37:08;;;;;;;26.67;12.43;;;;;;;-2.22;100.00;101272.09;5094059;28;20532;-72
2022/01/11 04:39:36;;;;;;;21.08;11.93;;;;;;;-2.26;100.00;101278.81;5098273;28;20054;-73
2022/01/11 04:42:05;;;;;;;23.25;12.57;;;;;;;-2.32;100.00;101291.09;5097748;28;20055;-72
2022/01/11 04:44:33;;;;;;;23.50;12.10;;;;;;;-2.36;100.00;101286.22;5097796;28;20050;-72
2022/01/11 04:47:04;;;;;;;22.90;12.23;;;;;;;-2.33;100.00;101283.22;5111388;28;20398;-72
2022/01/11 04:49:32;;;;;;;24.40;10.93;;;;;;;-1.94;100.00;101293.03;5098102;28;20039;-72
2022/01/11 04:52:02;;;;;;;23.25;11.07;;;;;;;-1.99;100.00;101290.03;5097623;28;20402;-72
2022/01/11 04:54:31;;;;;;;21.75;11.05;;;;;;;-2.18;100.00;101292.19;5097960;28;20051;-72
2022/01/11 04:57:04;;;;;;;22.77;11.63;;;;;;;-2.24;100.00;101306.28;5113966;27;20051;-72
2022/01/11 04:59:33;;;;;;;20.60;11.20;;;;;;;-2.36;100.00;101308.53;5115761;28;20055;-73
2022/01/11 05:02:01;;;;;;;23.13;11.15;;;;;;;-2.38;100.00;101302.50;5097467;28;20788;-72
2022/01/11 05:04:30;;;;;;;18.58;10.00;;;;;;;-2.38;100.00;101307.03;5115602;28;20133;-72
2022/01/11 05:06:58;;;;;;;17.20;10.40;;;;;;;-2.38;100.00;101307.03;5091119;28;20048;-72
2022/01/11 05:09:26;;;;;;;20.98;10.70;;;;;;;-2.43;100.00;101310.25;5097582;28;20042;-72
2022/01/11 05:11:54;;;;;;;23.48;11.77;;;;;;;-2.44;100.00;101311.25;5086090;28;20055;-72
2022/01/11 05:14:22;;;;;;;26.33;11.75;;;;;;;-2.48;100.00;101310.78;5076532;28;20070;-72
2022/01/11 05:16:52;;;;;;;21.13;10.32;;;;;;;-2.43;100.00;101324.47;5091009;28;20419;-73
2022/01/11 05:19:20;;;;;;;16.98;9.65;;;;;;;-2.45;100.00;101322.97;5095281;28;20527;-72
2022/01/11 05:21:50;;;;;;;18.90;10.30;;;;;;;-2.37;100.00;101330.13;5087174;28;20055;-72
2022/01/11 05:24:19;;;;;;;15.02;8.60;;;;;;;-2.16;100.00;101321.47;5084618;28;20044;-72
2022/01/11 05:26:51;;;;;;;15.75;9.20;;;;;;;-1.89;99.17;101322.81;5091828;28;20052;-73
2022/01/11 05:29:19;;;;;;;22.65;10.13;;;;;;;-1.97;99.52;101313.97;5093223;28;20032;-72
2022/01/11 05:31:47;;;;;;;16.77;8.32;;;;;;;-2.12;99.16;101320.13;5093113;28;20044;-72
2022/01/11 05:34:16;;;;;;;22.92;10.38;;;;;;;-2.21;99.77;101323.84;5094978;28;20031;-72
2022/01/11 05:36:44;;;;;;;17.67;9.82;;;;;;;-2.29;100.00;101324.75;5096376;28;20062;-72
2022/01/11 05:39:12;;;;;;;15.00;9.32;;;;;;;-2.38;100.00;101326.63;5086062;28;20044;-71
2022/01/11 05:41:40;;;;;;;19.80;9.88;;;;;;;-2.18;100.00;101334.25;5087736;28;20044;-72
2022/01/11 05:44:08;;;;;;;18.90;9.65;;;;;;;-2.22;99.19;101323.03;5070813;28;20048;-72
2022/01/11 05:46:37;;;;;;;19.38;10.30;;;;;;;-2.31;100.00;101324.06;5087264;28;20044;-72
2022/01/11 05:49:05;;;;;;;19.52;11.05;;;;;;;-2.35;99.26;101331.63;5079705;28;20044;-72
2022/01/11 05:51:33;;;;;;;19.70;11.02;;;;;;;-2.30;99.54;101341.81;5089351;28;20051;-72
2022/01/11 05:54:01;;;;;;;17.35;9.68;;;;;;;-2.15;98.78;101347.31;5099645;28;20058;-72
2022/01/11 05:56:29;;;;;;;20.77;10.32;;;;;;;-2.20;99.70;101347.81;5088152;28;20510;-72
2022/01/11 05:58:57;;;;;;;16.42;9.13;;;;;;;-2.21;98.80;101346.16;5092833;28;20048;-72
2022/01/11 06:01:25;;;;;;;18.98;9.35;;;;;;;-2.15;98.62;101347.31;5091447;28;20046;-72
2022/01/11 06:03:54;;;;;;;17.02;9.20;;;;;;;-2.13;97.46;101347.09;5108719;28;20043;-74
2022/01/11 06:06:22;;;;;;;15.85;8.77;;;;;;;-2.10;97.11;101352.94;5091718;28;20040;-72
2022/01/11 06:08:51;;;;;;;14.70;8.77;;;;;;;-1.91;96.60;101362.41;5106720;28;20036;-71
2022/01/11 06:11:19;;;;;;;13.63;7.70;;;;;;;-1.70;94.36;101354.72;5101993;28;20043;-73
2022/01/11 06:13:51;;;;;;;12.98;7.90;;;;;;;-1.89;95.70;101360.38;5090478;28;20409;-73
2022/01/11 06:16:21;;;;;;;15.13;9.10;;;;;;;-2.03;96.84;101369.19;5074213;28;20043;-72
2022/01/11 06:18:50;;;;;;;14.10;8.65;;;;;;;-2.12;97.28;101364.88;5090049;28;20048;-71
2022/01/11 06:21:27;;;;;;;13.50;6.45;;;;;;;-2.14;95.51;101366.91;5091672;28;20063;-71
2022/01/11 06:23:56;;;;;;;15.18;8.02;;;;;;;-2.12;94.88;101371.06;5095026;28;20044;-71
2022/01/11 06:26:24;;;;;;;66.63;27.70;;;;;;;-1.92;92.90;101382.22;5093806;28;20050;-70
2022/01/11 06:28:52;;;;;;;31.70;14.80;;;;;;;-1.90;94.81;101376.66;5088155;28;20046;-70
2022/01/11 06:31:20;;;;;;;34.45;14.10;;;;;;;-1.98;95.77;101384.75;5075487;28;20048;-70
2022/01/11 06:33:49;;;;;;;36.53;16.63;;;;;;;-2.06;95.56;101391.84;5088582;28;20394;-73
2022/01/11 06:36:20;;;;;;;28.98;13.98;;;;;;;-1.97;95.05;101398.00;5088079;28;20051;-72
2022/01/11 06:38:49;;;;;;;31.17;13.35;;;;;;;-1.80;98.60;101404.09;5103168;27;20043;-72
2022/01/11 06:41:24;;;;;;;27.70;12.75;;;;;;;-1.84;95.07;101402.78;5134300;27;20477;-74
2022/01/11 06:43:54;;;;;;;27.17;12.35;;;;;;;-1.92;95.10;101414.41;5091334;28;20035;-74
2022/01/11 06:46:25;;;;;;;27.35;13.50;;;;;;;-2.02;95.19;101413.78;5120260;27;20040;-71
2022/01/11 06:48:57;;;;;;;28.65;13.32;;;;;;;-2.07;96.41;101414.31;5073092;28;20051;-74
2022/01/11 06:51:27;;;;;;;23.80;12.55;;;;;;;-2.11;96.03;101422.88;5092808;28;20513;-71
2022/01/11 06:53:55;;;;;;;29.20;12.52;;;;;;;-2.11;96.14;101420.22;5075069;28;20047;-73
2022/01/11 06:56:24;;;;;;;21.58;8.90;;;;;;;-2.11;95.01;101431.75;5127903;27;20406;-73
2022/01/11 06:58:59;;;;;;;15.82;8.13;;;;;;;-2.03;92.28;101438.94;5095374;28;20044;-71
2022/01/11 07:01:29;;;;;;;17.17;8.85;;;;;;;-1.94;90.80;101440.59;5094699;28;20040;-72
2022/01/11 07:04:02;;;;;;;11.77;7.55;;;;;;;-1.69;88.68;101451.19;5078395;28;20040;-73
2022/01/11 07:06:37;;;;;;;13.68;7.43;;;;;;;-1.69;89.78;101448.50;5095128;28;20559;-71
2022/01/11 07:09:06;;;;;;;10.77;6.40;;;;;;;-1.71;89.57;101447.81;5094919;28;20071;-73
2022/01/11 07:11:37;;;;;;;10.73;5.97;;;;;;;-1.66;88.38;101460.72;5095280;28;20048;-74
2022/01/11 07:14:06;;;;;;;12.00;6.63;;;;;;;-1.66;87.69;101461.53;5095052;28;20059;-73
2022/01/11 07:16:34;;;;;;;10.55;6.95;;;;;;;-1.57;87.86;101472.25;5095044;28;20051;-74
2022/01/11 07:19:03;;;;;;;12.57;7.15;;;;;;;-1.37;87.15;101473.44;5094078;28;20051;-74
2022/01/11 07:21:34;;;;;;;20.75;7.32;;;;;;;-1.28;87.64;101484.16;5095197;28;20048;-72
2022/01/11 07:24:07;;;;;;;16.75;8.05;;;;;;;-1.26;86.97;101482.13;5093979;28;20048;-72
2022/01/11 07:26:35;;;;;;;13.25;7.43;;;;;;;-1.18;86.82;101479.34;5095203;28;20110;-72
2022/01/11 07:29:05;;;;;;;16.52;8.23;;;;;;;-1.02;86.94;101488.31;5128225;27;20054;-71
2022/01/11 07:31:38;;;;;;;13.77;8.07;;;;;;;-0.90;86.72;101481.50;5094197;28;20043;-72
2022/01/11 07:34:09;;;;;;;15.50;8.00;;;;;;;-0.76;86.26;101492.47;5078005;28;20498;-71
2022/01/11 07:36:40;;;;;;;16.60;8.25;;;;;;;-0.66;87.49;101497.59;5093788;28;20405;-71
2022/01/11 07:39:09;;;;;;;13.52;6.97;;;;;;;-0.61;87.53;101498.72;5112915;28;20050;-71
2022/01/11 07:41:38;;;;;;;17.17;7.50;;;;;;;-0.42;85.77;101507.28;5077549;28;20490;-71
2022/01/11 07:44:38;;;;;;;14.05;7.47;;;;;;;-0.22;84.92;101506.72;5101496;28;20396;-71
2022/01/11 07:47:08;;;;;;;11.68;5.78;;;;;;;-0.22;83.63;101512.97;5094574;28;20528;-71
2022/01/11 07:49:38;;;;;;;10.20;6.07;;;;;;;-0.07;82.16;101515.66;5093681;28;20382;-71
2022/01/11 07:52:16;;;;;;;7.30;5.05;;;;;;;0.11;82.05;101504.50;5095001;28;20044;-70
2022/01/11 07:54:44;;;;;;;11.07;6.10;;;;;;;0.28;82.04;101508.84;5093834;28;20596;-71
2022/01/11 07:57:15;;;;;;;10.00;5.78;;;;;;;0.31;83.98;101511.16;5093514;28;20075;-71
2022/01/11 07:59:43;;;;;;;9.73;6.25;;;;;;;0.41;82.88;101522.47;5074411;28;20051;-72
2022/01/11 08:02:26;;;;;;;13.77;6.05;;;;;;;0.42;81.88;101524.16;5093431;28;20055;-73
2022/01/11 08:04:56;;;;;;;12.75;6.28;;;;;;;0.47;82.68;101528.97;5085653;28;20056;-72
2022/01/11 08:07:24;;;;;;;11.40;6.38;;;;;;;0.50;79.93;101532.09;5121536;27;20059;-72
2022/01/11 08:10:00;;;;;;;12.30;6.22;;;;;;;0.69;79.51;101532.53;5093250;28;20055;-72
2022/01/11 08:12:28;;;;;;;12.65;6.40;;;;;;;0.80;77.97;101539.28;5092638;28;20060;-72
2022/01/11 08:14:57;;;;;;;12.20;6.72;;;;;;;0.96;78.42;101546.28;5093714;28;20121;-71
2022/01/11 08:17:28;;;;;;;9.93;5.85;;;;;;;1.20;76.44;101555.03;5111503;28;20056;-71
2022/01/11 08:19:59;;;;;;;;;;;;;;;1.47;75.72;101555.28;5094545;28;20051;-71
2022/01/11 08:22:27;;;;;;;7.88;4.88;;;;;;;1.69;74.11;101556.06;5111400;28;19927;-71
2022/01/11 08:24:55;;;;;;;10.70;5.03;;;;;;;1.88;72.97;101568.03;5092659;28;20051;-71
2022/01/11 08:27:24;;;;;;;8.25;5.50;;;;;;;2.15;72.41;101570.03;5093128;28;20039;-71
2022/01/11 08:29:53;;;;;;;13.70;5.65;;;;;;;2.40;72.13;101570.38;5093496;28;20040;-71
2022/01/11 08:32:23;;;;;;;13.35;6.10;;;;;;;2.48;71.34;101571.25;5111823;28;20043;-71
2022/01/11 08:34:53;;;;;;;11.85;5.55;;;;;;;2.61;72.20;101575.88;5093914;28;20044;-71
2022/01/11 08:37:22;;;;;;;13.52;7.35;;;;;;;2.76;72.04;101579.28;5093923;28;20043;-71
2022/01/11 08:39:50;;;;;;;21.10;8.05;;;;;;;2.87;73.40;101583.25;5093243;28;20416;-71
2022/01/11 08:42:18;;;;;;;18.92;7.97;;;;;;;2.93;72.59;101587.03;5093271;28;20396;-71
2022/01/11 08:44:47;;;;;;;23.83;9.40;;;;;;;3.02;72.16;101587.66;5093187;28;20044;-71
2022/01/11 08:47:20;;;;;;;18.45;9.20;;;;;;;3.17;73.34;101595.63;5111902;28;20489;-71
2022/01/11 08:49:48;;;;;;;20.50;12.93;;;;;;;3.31;72.57;101593.75;5093142;28;20039;-71
2022/01/11 08:52:17;;;;;;;28.40;15.68;;;;;;;3.57;72.04;101594.84;5093257;28;20052;-73
2022/01/11 08:54:48;;;;;;;27.20;15.43;;;;;;;3.78;73.04;101601.06;5093985;28;20040;-70
2022/01/11 08:57:19;;;;;;;23.45;12.65;;;;;;;4.07;71.11;101617.91;5092979;28;20055;-70
2022/01/11 08:59:49;;;;;;;20.00;13.55;;;;;;;4.24;72.02;101610.16;5092979;28;20055;-73
2022/01/11 09:02:21;;;;;;;18.00;10.27;;;;;;;4.42;69.92;101602.22;5093339;28;20052;-72
2022/01/11 09:04:54;;;;;;;17.65;8.85;;;;;;;4.59;69.36;101600.91;5092763;28;20047;-72
2022/01/11 09:07:27;;;;;;;20.10;8.73;;;;;;;4.72;67.78;101611.69;5093201;28;20070;-72
2022/01/11 09:09:58;;;;;;;16.80;10.13;;;;;;;4.87;67.30;101607.84;5093585;28;20043;-72
2022/01/11 09:12:26;;;;;;;15.30;10.85;;;;;;;4.83;66.92;101608.31;5092729;28;20039;-72
2022/01/11 09:14:54;;;;;;;14.07;9.35;;;;;;;5.00;67.44;101623.25;5093496;28;20043;-71
2022/01/11 09:17:23;;;;;;;17.38;10.43;;;;;;;5.13;67.14;101616.94;5092644;28;20047;-71
2022/01/11 09:19:52;;;;;;;14.05;9.23;;;;;;;5.17;67.25;101620.84;5093527;28;20044;-72
2022/01/11 09:22:22;;;;;;;15.25;9.30;;;;;;;5.08;67.79;101626.53;5093358;28;20036;-71
2022/01/11 09:24:55;;;;;;;12.60;8.75;;;;;;;5.13;68.68;101633.22;5097286;28;20055;-72
2022/01/11 09:27:28;;;;;;;11.85;8.40;;;;;;;5.30;66.44;101634.34;5096185;28;20055;-72
2022/01/11 09:30:06;;;;;;;15.77;9.07;;;;;;;5.41;65.92;101634.69;5096834;28;20505;-71
2022/01/11 09:32:37;;;;;;;14.70;9.38;;;;;;;5.44;66.22;101631.56;5080043;28;20050;-72
2022/01/11 09:35:08;;;;;;;15.00;9.38;;;;;;;5.50;65.95;101623.38;5096345;28;20052;-72
2022/01/11 09:37:37;;;;;;;13.95;9.27;;;;;;;6.12;64.22;101626.44;5079757;28;20401;-73
2022/01/11 09:40:11;;;;;;;22.70;10.13;;;;;;;6.58;63.67;101627.00;5097425;28;20043;-73
2022/01/11 09:42:41;;;;;;;20.98;10.25;;;;;;;6.89;62.15;101629.78;5096496;28;20640;-71
2022/01/11 09:45:12;;;;;;;22.80;9.88;;;;;;;7.16;59.31;101634.84;5095923;28;20382;-72
2022/01/11 09:47:47;;;;;;;11.38;8.13;;;;;;;7.29;56.23;101631.94;5095726;28;20035;-71
2022/01/11 09:50:19;;;;;;;15.07;8.90;;;;;;;7.15;58.04;101634.03;5096511;28;20047;-72
2022/01/11 09:52:59;;;;;;;10.82;7.50;;;;;;;7.42;57.67;101633.63;5095580;28;20070;-72
2022/01/11 09:55:36;;;;;;;11.23;7.47;;;;;;;7.85;54.35;101645.34;5096825;28;20052;-72
2022/01/11 09:58:08;;;;;;;10.07;6.60;;;;;;;7.97;50.75;101639.88;5096272;28;20055;-71
2022/01/11 10:00:53;;;;;;;11.07;6.78;;;;;;;8.01;51.66;101630.16;5114780;28;20032;-72
2022/01/11 10:04:14;;;;;;;9.52;6.10;;;;;;;7.99;51.83;101637.75;5079541;28;20051;-72
2022/01/11 10:06:54;;;;;;;11.65;5.75;;;;;;;8.26;48.97;101644.63;5103689;28;20051;-72
2022/01/11 10:09:25;;;;;;;8.73;6.18;;;;;;;8.26;49.74;101647.38;5095916;28;20368;-71
2022/01/11 10:12:00;;;;;;;11.48;6.63;;;;;;;8.17;47.87;101638.72;5095940;28;20056;-71
2022/01/11 10:14:32;;;;;;;9.43;5.97;;;;;;;8.29;46.21;101645.00;5096100;28;20423;-72
2022/01/11 10:17:10;;;;;;;9.45;6.43;;;;;;;8.55;48.39;101639.31;5096073;28;20509;-71
2022/01/11 10:19:42;;;;;;;8.57;5.80;;;;;;;8.72;46.61;101639.38;5096250;28;20047;-72
2022/01/11 10:22:13;;;;;;;7.85;6.00;;;;;;;8.68;46.38;101630.00;5095356;28;20047;-72
2022/01/11 10:24:50;;;;;;;9.20;6.18;;;;;;;8.62;46.71;101636.44;5096452;28;20482;-72
2022/01/11 10:27:36;;;;;;;9.70;6.00;;;;;;;8.83;46.97;101635.78;5096164;28;20047;-72
2022/01/11 10:30:16;;;;;;;7.72;6.13;;;;;;;8.69;45.84;101637.97;5113458;27;20047;-72
2022/01/11 10:32:56;;;;;;;11.10;5.45;;;;;;;8.91;46.66;101633.75;5095975;28;20036;-71
2022/01/11 10:35:32;;;;;;;7.55;5.55;;;;;;;8.96;45.53;101636.56;5087077;28;20040;-71
2022/01/11 10:38:37;;;;;;;;;;;;;;;9.27;46.21;101620.75;5113531;28;20051;-71
2022/01/11 10:41:32;;;;;;;7.65;5.38;;;;;;;9.13;46.32;101626.53;5095749;28;20273;-72
2022/01/11 10:44:01;;;;;;;6.63;5.15;;;;;;;9.37;45.30;101623.69;5095436;28;20044;-72
2022/01/11 10:46:43;;;;;;;12.25;5.32;;;;;;;9.34;45.19;101615.97;5095798;28;20054;-71
2022/01/11 10:49:31;;;;;;;5.60;4.30;;;;;;;9.22;45.29;101624.25;5092814;28;20054;-71
2022/01/11 10:52:16;;;;;;;10.32;4.60;;;;;;;8.69;45.61;101613.41;5095695;28;20051;-71
2022/01/11 10:54:48;;;;;;;7.53;4.63;;;;;;;8.77;47.38;101612.19;5094560;28;20044;-71
2022/01/11 10:57:16;;;;;;;5.05;4.50;;;;;;;9.00;46.88;101610.44;5094755;28;20159;-72
2022/01/11 11:00:09;;;;;;;9.48;4.45;;;;;;;9.04;47.02;101599.88;5094869;28;20393;-71
2022/01/11 11:02:38;;;;;;;5.00;3.83;;;;;;;8.99;46.27;101603.31;5078250;28;20052;-71
2022/01/11 11:05:16;;;;;;;5.75;4.32;;;;;;;8.64;45.61;101609.75;5077886;28;20048;-71
2022/01/11 11:07:55;;;;;;;6.85;4.32;;;;;;;8.93;46.10;101604.28;5094662;28;20048;-72
2022/01/11 11:10:31;;;;;;;6.13;4.20;;;;;;;8.76;46.83;101598.78;5128905;27;20398;-72
2022/01/11 11:13:00;;;;;;;7.68;5.07;;;;;;;8.46;46.26;101595.97;5061211;28;20051;-71
2022/01/11 11:15:33;;;;;;;5.25;4.20;;;;;;;8.56;47.55;101598.13;5094217;28;20366;-71
2022/01/11 11:18:25;;;;;;;5.47;4.20;;;;;;;8.81;46.44;101594.25;5094694;28;20154;-71
2022/01/11 11:20:54;;;;;;;7.57;4.10;;;;;;;8.72;46.70;101592.97;5089283;28;20059;-71
2022/01/11 11:23:23;;;;;;;6.13;4.75;;;;;;;8.82;46.57;101593.19;5112498;28;20031;-71
2022/01/11 11:25:51;;;;;;;7.53;4.65;;;;;;;8.86;45.87;101599.81;5125018;27;20402;-71
2022/01/11 11:28:21;;;;;;;7.28;4.97;;;;;;;8.87;47.44;101593.28;5093160;28;20050;-71
2022/01/11 11:30:49;;;;;;;10.20;5.38;;;;;;;8.68;48.58;101592.63;5092506;28;20042;-71
2022/01/11 11:33:19;;;;;;;8.38;5.03;;;;;;;8.80;46.82;101591.78;5111893;28;20055;-72
2022/01/11 11:35:49;;;;;;;6.32;4.80;;;;;;;9.00;47.76;101599.53;5112196;28;20043;-72
2022/01/11 11:38:30;;;;;;;5.90;4.53;;;;;;;9.09;46.78;101598.03;5111624;28;20505;-72